sensor_id;sensor_type;location;lat;lon;timestamp;P1;durP1;ratioP1;P2;durP2;ratioP2
79229;SDS011;68663;49.122;17.544;2023-06-01T00:01:44;4.35;;;2.83;;
79229;SDS011;68663;49.122;17.544;2023-06-01T00:04:09;3.38;;;2.67;;
79229;SDS011;68663;49.122;17.544;2023-06-01T00:06:35;3.25;;;2.60;;
79229;SDS011;68663;49.122;17.544;2023-06-01T00:09:00;3.45;;;2.55;;
79229;SDS011;68663;49.122;17.544;2023-06-01T00:11:27;3.13;;;2.60;;
79229;SDS011;68663;49.122;17.544;2023-06-01T00:13:53;3.35;;;2.50;;
79229;SDS011;68663;49.122;17.544;2023-06-01T00:16:18;3.60;;;2.42;;
79229;SDS011;68663;49.122;17.544;2023-06-01T00:18:44;3.53;;;2.53;;
79229;SDS011;68663;49.122;17.544;2023-06-01T00:21:10;4.38;;;2.72;;
79229;SDS011;68663;49.122;17.544;2023-06-01T00:23:35;4.28;;;2.95;;
79229;SDS011;68663;49.122;17.544;2023-06-01T00:26:06;3.05;;;2.30;;
79229;SDS011;68663;49.122;17.544;2023-06-01T00:28:32;4.40;;;2.58;;
79229;SDS011;68663;49.122;17.544;2023-06-01T00:30:57;3.38;;;2.53;;
79229;SDS011;68663;49.122;17.544;2023-06-01T00:33:23;3.70;;;2.42;;
79229;SDS011;68663;49.122;17.544;2023-06-01T00:35:48;3.42;;;2.25;;
79229;SDS011;68663;49.122;17.544;2023-06-01T00:38:14;3.47;;;2.75;;
79229;SDS011;68663;49.122;17.544;2023-06-01T00:40:40;3.10;;;2.30;;
79229;SDS011;68663;49.122;17.544;2023-06-01T00:43:05;2.90;;;2.50;;
79229;SDS011;68663;49.122;17.544;2023-06-01T00:45:31;3.88;;;2.72;;
79229;SDS011;68663;49.122;17.544;2023-06-01T00:47:56;3.47;;;2.60;;
79229;SDS011;68663;49.122;17.544;2023-06-01T00:50:22;2.85;;;2.40;;
79229;SDS011;68663;49.122;17.544;2023-06-01T00:52:48;3.13;;;2.08;;
79229;SDS011;68663;49.122;17.544;2023-06-01T00:55:15;4.05;;;2.70;;
79229;SDS011;68663;49.122;17.544;2023-06-01T00:57:42;2.85;;;2.30;;
79229;SDS011;68663;49.122;17.544;2023-06-01T01:00:08;3.83;;;2.47;;
79229;SDS011;68663;49.122;17.544;2023-06-01T01:02:38;3.33;;;2.30;;
79229;SDS011;68663;49.122;17.544;2023-06-01T01:05:06;3.28;;;2.42;;
79229;SDS011;68663;49.122;17.544;2023-06-01T01:07:38;3.10;;;2.28;;
79229;SDS011;68663;49.122;17.544;2023-06-01T01:12:45;3.03;;;2.38;;
79229;SDS011;68663;49.122;17.544;2023-06-01T01:15:14;3.78;;;2.50;;
79229;SDS011;68663;49.122;17.544;2023-06-01T01:17:44;3.58;;;2.55;;
79229;SDS011;68663;49.122;17.544;2023-06-01T01:20:22;3.22;;;2.60;;
79229;SDS011;68663;49.122;17.544;2023-06-01T01:26:35;3.67;;;2.42;;
79229;SDS011;68663;49.122;17.544;2023-06-01T01:28:52;3.60;;;2.60;;
79229;SDS011;68663;49.122;17.544;2023-06-01T01:31:23;3.47;;;2.35;;
79229;SDS011;68663;49.122;17.544;2023-06-01T01:33:50;3.30;;;2.42;;
79229;SDS011;68663;49.122;17.544;2023-06-01T01:36:20;3.22;;;2.55;;
79229;SDS011;68663;49.122;17.544;2023-06-01T01:38:46;4.10;;;2.50;;
79229;SDS011;68663;49.122;17.544;2023-06-01T01:41:12;3.55;;;2.58;;
79229;SDS011;68663;49.122;17.544;2023-06-01T01:43:37;3.47;;;2.08;;
79229;SDS011;68663;49.122;17.544;2023-06-01T01:51:18;4.38;;;2.55;;
79229;SDS011;68663;49.122;17.544;2023-06-01T01:53:47;3.80;;;2.70;;
79229;SDS011;68663;49.122;17.544;2023-06-01T01:56:16;2.60;;;2.28;;
79229;SDS011;68663;49.122;17.544;2023-06-01T01:58:43;2.60;;;2.22;;
79229;SDS011;68663;49.122;17.544;2023-06-01T02:04:18;3.20;;;2.28;;
79229;SDS011;68663;49.122;17.544;2023-06-01T02:06:43;3.35;;;2.55;;
79229;SDS011;68663;49.122;17.544;2023-06-01T02:09:09;3.45;;;2.38;;
79229;SDS011;68663;49.122;17.544;2023-06-01T02:11:34;3.33;;;2.30;;
79229;SDS011;68663;49.122;17.544;2023-06-01T02:14:00;3.50;;;2.33;;
79229;SDS011;68663;49.122;17.544;2023-06-01T02:16:26;3.47;;;2.67;;
79229;SDS011;68663;49.122;17.544;2023-06-01T02:18:51;3.95;;;2.45;;
79229;SDS011;68663;49.122;17.544;2023-06-01T02:21:17;2.83;;;2.05;;
79229;SDS011;68663;49.122;17.544;2023-06-01T02:23:42;5.28;;;2.47;;
79229;SDS011;68663;49.122;17.544;2023-06-01T02:26:08;2.90;;;2.30;;
79229;SDS011;68663;49.122;17.544;2023-06-01T02:28:38;3.10;;;2.60;;
79229;SDS011;68663;49.122;17.544;2023-06-01T02:31:05;3.80;;;2.55;;
79229;SDS011;68663;49.122;17.544;2023-06-01T02:33:31;3.22;;;2.40;;
79229;SDS011;68663;49.122;17.544;2023-06-01T02:35:57;3.08;;;2.25;;
79229;SDS011;68663;49.122;17.544;2023-06-01T02:38:22;3.70;;;2.50;;
79229;SDS011;68663;49.122;17.544;2023-06-01T02:40:48;2.92;;;2.58;;
79229;SDS011;68663;49.122;17.544;2023-06-01T02:43:13;3.63;;;2.38;;
79229;SDS011;68663;49.122;17.544;2023-06-01T02:45:39;4.03;;;2.40;;
79229;SDS011;68663;49.122;17.544;2023-06-01T02:48:04;3.28;;;2.38;;
79229;SDS011;68663;49.122;17.544;2023-06-01T02:50:30;3.50;;;2.30;;
79229;SDS011;68663;49.122;17.544;2023-06-01T02:52:55;3.35;;;2.35;;
79229;SDS011;68663;49.122;17.544;2023-06-01T02:55:21;3.47;;;2.20;;
79229;SDS011;68663;49.122;17.544;2023-06-01T02:57:46;3.63;;;2.60;;
79229;SDS011;68663;49.122;17.544;2023-06-01T03:00:12;4.32;;;2.40;;
79229;SDS011;68663;49.122;17.544;2023-06-01T03:02:44;4.55;;;2.50;;
79229;SDS011;68663;49.122;17.544;2023-06-01T03:05:10;3.50;;;2.67;;
79229;SDS011;68663;49.122;17.544;2023-06-01T03:07:45;3.80;;;2.72;;
79229;SDS011;68663;49.122;17.544;2023-06-01T03:10:10;3.70;;;2.90;;
79229;SDS011;68663;49.122;17.544;2023-06-01T03:12:36;2.80;;;2.15;;
79229;SDS011;68663;49.122;17.544;2023-06-01T03:15:02;3.50;;;2.50;;
79229;SDS011;68663;49.122;17.544;2023-06-01T03:17:28;4.75;;;2.70;;
79229;SDS011;68663;49.122;17.544;2023-06-01T03:19:53;3.00;;;2.58;;
79229;SDS011;68663;49.122;17.544;2023-06-01T03:22:19;3.55;;;2.38;;
79229;SDS011;68663;49.122;17.544;2023-06-01T03:24:45;2.97;;;2.33;;
79229;SDS011;68663;49.122;17.544;2023-06-01T03:27:14;3.00;;;2.28;;
79229;SDS011;68663;49.122;17.544;2023-06-01T03:29:40;4.80;;;2.55;;
79229;SDS011;68663;49.122;17.544;2023-06-01T03:32:06;2.90;;;2.20;;
79229;SDS011;68663;49.122;17.544;2023-06-01T03:34:32;4.07;;;2.75;;
79229;SDS011;68663;49.122;17.544;2023-06-01T03:36:57;3.42;;;2.60;;
79229;SDS011;68663;49.122;17.544;2023-06-01T03:39:23;6.35;;;2.80;;
79229;SDS011;68663;49.122;17.544;2023-06-01T03:41:49;3.58;;;2.95;;
79229;SDS011;68663;49.122;17.544;2023-06-01T03:44:14;3.58;;;2.90;;
79229;SDS011;68663;49.122;17.544;2023-06-01T03:46:39;3.37;;;2.50;;
79229;SDS011;68663;49.122;17.544;2023-06-01T03:49:05;5.25;;;3.40;;
79229;SDS011;68663;49.122;17.544;2023-06-01T03:51:31;6.03;;;3.40;;
79229;SDS011;68663;49.122;17.544;2023-06-01T03:53:56;4.80;;;2.95;;
79229;SDS011;68663;49.122;17.544;2023-06-01T03:56:22;8.30;;;3.47;;
79229;SDS011;68663;49.122;17.544;2023-06-01T03:58:48;7.65;;;3.40;;
79229;SDS011;68663;49.122;17.544;2023-06-01T04:01:13;9.95;;;4.57;;
79229;SDS011;68663;49.122;17.544;2023-06-01T04:03:41;26.55;;;7.22;;
79229;SDS011;68663;49.122;17.544;2023-06-01T04:06:10;21.67;;;7.28;;
79229;SDS011;68663;49.122;17.544;2023-06-01T04:08:42;20.73;;;7.57;;
79229;SDS011;68663;49.122;17.544;2023-06-01T04:11:14;19.27;;;7.03;;
79229;SDS011;68663;49.122;17.544;2023-06-01T04:13:40;23.67;;;8.00;;
79229;SDS011;68663;49.122;17.544;2023-06-01T04:16:05;21.02;;;6.75;;
79229;SDS011;68663;49.122;17.544;2023-06-01T04:18:31;22.15;;;7.22;;
79229;SDS011;68663;49.122;17.544;2023-06-01T04:20:56;19.95;;;6.70;;
79229;SDS011;68663;49.122;17.544;2023-06-01T04:23:22;19.58;;;6.75;;
79229;SDS011;68663;49.122;17.544;2023-06-01T04:25:47;14.52;;;6.00;;
79229;SDS011;68663;49.122;17.544;2023-06-01T04:28:16;17.42;;;6.25;;
79229;SDS011;68663;49.122;17.544;2023-06-01T04:30:42;18.67;;;5.68;;
79229;SDS011;68663;49.122;17.544;2023-06-01T04:33:09;15.10;;;5.55;;
79229;SDS011;68663;49.122;17.544;2023-06-01T04:35:35;14.73;;;6.07;;
79229;SDS011;68663;49.122;17.544;2023-06-01T04:38:04;17.23;;;5.57;;
79229;SDS011;68663;49.122;17.544;2023-06-01T04:40:29;19.27;;;7.13;;
79229;SDS011;68663;49.122;17.544;2023-06-01T04:42:54;15.37;;;6.37;;
79229;SDS011;68663;49.122;17.544;2023-06-01T04:45:22;14.93;;;6.10;;
79229;SDS011;68663;49.122;17.544;2023-06-01T04:47:48;15.88;;;5.85;;
79229;SDS011;68663;49.122;17.544;2023-06-01T04:50:15;14.68;;;5.65;;
79229;SDS011;68663;49.122;17.544;2023-06-01T04:52:41;8.80;;;5.10;;
79229;SDS011;68663;49.122;17.544;2023-06-01T04:55:08;12.85;;;5.53;;
79229;SDS011;68663;49.122;17.544;2023-06-01T04:57:34;13.52;;;5.35;;
79229;SDS011;68663;49.122;17.544;2023-06-01T05:00:00;11.52;;;6.22;;
79229;SDS011;68663;49.122;17.544;2023-06-01T05:02:29;14.20;;;5.65;;
79229;SDS011;68663;49.122;17.544;2023-06-01T05:04:54;11.60;;;5.13;;
79229;SDS011;68663;49.122;17.544;2023-06-01T05:07:20;14.27;;;5.45;;
79229;SDS011;68663;49.122;17.544;2023-06-01T05:09:46;11.73;;;5.20;;
79229;SDS011;68663;49.122;17.544;2023-06-01T05:12:12;10.50;;;4.80;;
79229;SDS011;68663;49.122;17.544;2023-06-01T05:14:37;11.48;;;5.40;;
79229;SDS011;68663;49.122;17.544;2023-06-01T05:17:03;12.73;;;6.65;;
79229;SDS011;68663;49.122;17.544;2023-06-01T05:19:28;13.88;;;5.38;;
79229;SDS011;68663;49.122;17.544;2023-06-01T05:21:54;9.85;;;4.45;;
79229;SDS011;68663;49.122;17.544;2023-06-01T05:24:19;9.98;;;4.93;;
79229;SDS011;68663;49.122;17.544;2023-06-01T05:26:45;10.30;;;4.50;;
79229;SDS011;68663;49.122;17.544;2023-06-01T05:29:10;10.45;;;4.97;;
79229;SDS011;68663;49.122;17.544;2023-06-01T05:31:36;13.30;;;4.97;;
79229;SDS011;68663;49.122;17.544;2023-06-01T05:34:01;9.65;;;4.80;;
79229;SDS011;68663;49.122;17.544;2023-06-01T05:36:27;12.00;;;5.40;;
79229;SDS011;68663;49.122;17.544;2023-06-01T05:38:52;10.65;;;4.93;;
79229;SDS011;68663;49.122;17.544;2023-06-01T05:41:18;13.90;;;5.07;;
79229;SDS011;68663;49.122;17.544;2023-06-01T05:43:43;11.90;;;5.30;;
79229;SDS011;68663;49.122;17.544;2023-06-01T05:46:09;10.47;;;5.10;;
79229;SDS011;68663;49.122;17.544;2023-06-01T05:48:34;9.20;;;4.63;;
79229;SDS011;68663;49.122;17.544;2023-06-01T05:50:59;12.30;;;4.90;;
79229;SDS011;68663;49.122;17.544;2023-06-01T05:53:25;9.60;;;4.68;;
79229;SDS011;68663;49.122;17.544;2023-06-01T05:55:52;8.25;;;4.57;;
79229;SDS011;68663;49.122;17.544;2023-06-01T05:58:18;9.30;;;4.35;;
79229;SDS011;68663;49.122;17.544;2023-06-01T06:00:43;8.18;;;4.78;;
79229;SDS011;68663;49.122;17.544;2023-06-01T06:03:09;9.63;;;4.95;;
79229;SDS011;68663;49.122;17.544;2023-06-01T06:05:34;9.90;;;5.10;;
79229;SDS011;68663;49.122;17.544;2023-06-01T06:08:00;8.02;;;4.53;;
79229;SDS011;68663;49.122;17.544;2023-06-01T06:10:26;9.85;;;5.07;;
79229;SDS011;68663;49.122;17.544;2023-06-01T06:12:51;9.48;;;4.45;;
79229;SDS011;68663;49.122;17.544;2023-06-01T06:15:17;11.85;;;4.40;;
79229;SDS011;68663;49.122;17.544;2023-06-01T06:17:42;7.47;;;4.47;;
79229;SDS011;68663;49.122;17.544;2023-06-01T06:20:08;8.02;;;4.30;;
79229;SDS011;68663;49.122;17.544;2023-06-01T06:22:35;8.68;;;4.50;;
79229;SDS011;68663;49.122;17.544;2023-06-01T06:25:00;10.07;;;4.20;;
79229;SDS011;68663;49.122;17.544;2023-06-01T06:27:26;7.68;;;4.10;;
79229;SDS011;68663;49.122;17.544;2023-06-01T06:29:51;7.28;;;4.13;;
79229;SDS011;68663;49.122;17.544;2023-06-01T06:32:17;8.45;;;4.18;;
79229;SDS011;68663;49.122;17.544;2023-06-01T06:34:44;8.35;;;4.10;;
79229;SDS011;68663;49.122;17.544;2023-06-01T06:37:10;8.85;;;4.18;;
79229;SDS011;68663;49.122;17.544;2023-06-01T06:39:36;9.52;;;4.85;;
79229;SDS011;68663;49.122;17.544;2023-06-01T06:42:02;9.30;;;3.95;;
79229;SDS011;68663;49.122;17.544;2023-06-01T06:44:29;6.18;;;4.35;;
79229;SDS011;68663;49.122;17.544;2023-06-01T06:46:54;7.45;;;4.10;;
79229;SDS011;68663;49.122;17.544;2023-06-01T06:49:20;7.40;;;4.30;;
79229;SDS011;68663;49.122;17.544;2023-06-01T06:51:45;7.38;;;4.05;;
79229;SDS011;68663;49.122;17.544;2023-06-01T06:54:11;6.30;;;3.80;;
79229;SDS011;68663;49.122;17.544;2023-06-01T06:56:37;9.30;;;4.30;;
79229;SDS011;68663;49.122;17.544;2023-06-01T06:59:02;10.87;;;4.80;;
79229;SDS011;68663;49.122;17.544;2023-06-01T07:01:27;9.15;;;4.00;;
79229;SDS011;68663;49.122;17.544;2023-06-01T07:03:53;10.45;;;4.15;;
79229;SDS011;68663;49.122;17.544;2023-06-01T07:06:20;7.03;;;4.00;;
79229;SDS011;68663;49.122;17.544;2023-06-01T07:08:46;10.60;;;4.25;;
79229;SDS011;68663;49.122;17.544;2023-06-01T07:11:11;8.52;;;4.50;;
79229;SDS011;68663;49.122;17.544;2023-06-01T07:13:37;9.70;;;3.87;;
79229;SDS011;68663;49.122;17.544;2023-06-01T07:16:03;8.68;;;4.28;;
79229;SDS011;68663;49.122;17.544;2023-06-01T07:18:29;10.20;;;4.72;;
79229;SDS011;68663;49.122;17.544;2023-06-01T07:20:55;11.57;;;4.18;;
79229;SDS011;68663;49.122;17.544;2023-06-01T07:23:21;9.73;;;4.20;;
79229;SDS011;68663;49.122;17.544;2023-06-01T07:25:47;9.90;;;4.70;;
79229;SDS011;68663;49.122;17.544;2023-06-01T07:28:12;9.23;;;4.30;;
79229;SDS011;68663;49.122;17.544;2023-06-01T07:30:38;11.98;;;4.60;;
79229;SDS011;68663;49.122;17.544;2023-06-01T07:33:04;8.13;;;4.03;;
79229;SDS011;68663;49.122;17.544;2023-06-01T07:35:29;8.48;;;4.20;;
79229;SDS011;68663;49.122;17.544;2023-06-01T07:37:57;7.78;;;4.03;;
79229;SDS011;68663;49.122;17.544;2023-06-01T07:40:23;8.30;;;4.40;;
79229;SDS011;68663;49.122;17.544;2023-06-01T07:42:48;9.20;;;4.27;;
79229;SDS011;68663;49.122;17.544;2023-06-01T07:45:13;10.90;;;4.38;;
79229;SDS011;68663;49.122;17.544;2023-06-01T07:47:39;9.02;;;3.97;;
79229;SDS011;68663;49.122;17.544;2023-06-01T07:50:05;8.43;;;3.90;;
79229;SDS011;68663;49.122;17.544;2023-06-01T07:52:31;9.85;;;4.40;;
79229;SDS011;68663;49.122;17.544;2023-06-01T07:54:57;6.55;;;3.63;;
79229;SDS011;68663;49.122;17.544;2023-06-01T07:57:22;8.60;;;4.10;;
79229;SDS011;68663;49.122;17.544;2023-06-01T07:59:48;12.38;;;4.07;;
79229;SDS011;68663;49.122;17.544;2023-06-01T08:02:14;9.23;;;4.18;;
79229;SDS011;68663;49.122;17.544;2023-06-01T08:04:39;8.07;;;3.78;;
79229;SDS011;68663;49.122;17.544;2023-06-01T08:07:05;6.78;;;3.60;;
79229;SDS011;68663;49.122;17.544;2023-06-01T08:09:35;8.32;;;3.72;;
79229;SDS011;68663;49.122;17.544;2023-06-01T08:12:02;7.82;;;4.35;;
79229;SDS011;68663;49.122;17.544;2023-06-01T08:14:28;9.43;;;3.72;;
79229;SDS011;68663;49.122;17.544;2023-06-01T08:16:53;8.13;;;3.92;;
79229;SDS011;68663;49.122;17.544;2023-06-01T08:19:18;8.07;;;4.45;;
79229;SDS011;68663;49.122;17.544;2023-06-01T08:21:44;8.13;;;3.85;;
79229;SDS011;68663;49.122;17.544;2023-06-01T08:24:10;10.43;;;4.15;;
79229;SDS011;68663;49.122;17.544;2023-06-01T08:26:37;7.82;;;3.42;;
79229;SDS011;68663;49.122;17.544;2023-06-01T08:29:03;7.07;;;4.05;;
79229;SDS011;68663;49.122;17.544;2023-06-01T08:31:28;9.93;;;4.60;;
79229;SDS011;68663;49.122;17.544;2023-06-01T08:33:54;8.30;;;4.13;;
79229;SDS011;68663;49.122;17.544;2023-06-01T08:36:20;9.38;;;4.18;;
79229;SDS011;68663;49.122;17.544;2023-06-01T08:38:46;7.13;;;3.47;;
79229;SDS011;68663;49.122;17.544;2023-06-01T08:41:31;7.40;;;3.58;;
79229;SDS011;68663;49.122;17.544;2023-06-01T08:43:58;7.07;;;3.67;;
79229;SDS011;68663;49.122;17.544;2023-06-01T08:46:27;10.05;;;3.75;;
79229;SDS011;68663;49.122;17.544;2023-06-01T08:48:55;5.72;;;3.30;;
79229;SDS011;68663;49.122;17.544;2023-06-01T08:51:23;7.65;;;4.03;;
79229;SDS011;68663;49.122;17.544;2023-06-01T08:53:50;5.90;;;3.83;;
79229;SDS011;68663;49.122;17.544;2023-06-01T08:56:16;8.80;;;3.67;;
79229;SDS011;68663;49.122;17.544;2023-06-01T08:58:45;7.00;;;3.70;;
79229;SDS011;68663;49.122;17.544;2023-06-01T09:01:20;8.32;;;3.95;;
79229;SDS011;68663;49.122;17.544;2023-06-01T09:03:46;8.52;;;3.85;;
79229;SDS011;68663;49.122;17.544;2023-06-01T09:06:13;8.13;;;3.78;;
79229;SDS011;68663;49.122;17.544;2023-06-01T09:08:38;8.00;;;3.75;;
79229;SDS011;68663;49.122;17.544;2023-06-01T09:11:04;8.43;;;3.83;;
79229;SDS011;68663;49.122;17.544;2023-06-01T09:13:30;6.82;;;3.90;;
79229;SDS011;68663;49.122;17.544;2023-06-01T09:16:00;6.53;;;3.92;;
79229;SDS011;68663;49.122;17.544;2023-06-01T09:18:25;6.28;;;3.83;;
79229;SDS011;68663;49.122;17.544;2023-06-01T09:20:51;6.90;;;3.55;;
79229;SDS011;68663;49.122;17.544;2023-06-01T09:23:24;6.13;;;3.88;;
79229;SDS011;68663;49.122;17.544;2023-06-01T09:28:53;6.63;;;3.53;;
79229;SDS011;68663;49.122;17.544;2023-06-01T09:31:41;5.38;;;3.42;;
79229;SDS011;68663;49.122;17.544;2023-06-01T09:34:20;6.13;;;3.60;;
79229;SDS011;68663;49.122;17.544;2023-06-01T09:36:51;6.13;;;3.88;;
79229;SDS011;68663;49.122;17.544;2023-06-01T09:39:19;8.88;;;3.72;;
79229;SDS011;68663;49.122;17.544;2023-06-01T09:41:56;6.72;;;3.30;;
79229;SDS011;68663;49.122;17.544;2023-06-01T09:47:00;7.43;;;4.32;;
79229;SDS011;68663;49.122;17.544;2023-06-01T09:49:28;8.38;;;3.92;;
79229;SDS011;68663;49.122;17.544;2023-06-01T09:52:16;5.97;;;3.75;;
79229;SDS011;68663;49.122;17.544;2023-06-01T09:54:42;5.25;;;3.25;;
79229;SDS011;68663;49.122;17.544;2023-06-01T09:57:10;5.75;;;3.50;;
79229;SDS011;68663;49.122;17.544;2023-06-01T09:59:45;7.22;;;3.72;;
79229;SDS011;68663;49.122;17.544;2023-06-01T10:04:41;5.97;;;3.88;;
79229;SDS011;68663;49.122;17.544;2023-06-01T10:07:09;6.13;;;3.17;;
79229;SDS011;68663;49.122;17.544;2023-06-01T10:12:06;7.10;;;3.72;;
79229;SDS011;68663;49.122;17.544;2023-06-01T10:14:33;5.00;;;3.22;;
79229;SDS011;68663;49.122;17.544;2023-06-01T10:16:58;5.05;;;3.60;;
79229;SDS011;68663;49.122;17.544;2023-06-01T10:19:25;5.25;;;3.22;;
79229;SDS011;68663;49.122;17.544;2023-06-01T10:21:50;7.78;;;3.58;;
79229;SDS011;68663;49.122;17.544;2023-06-01T10:24:17;6.43;;;3.50;;
79229;SDS011;68663;49.122;17.544;2023-06-01T10:26:46;5.13;;;2.92;;
79229;SDS011;68663;49.122;17.544;2023-06-01T10:29:16;5.18;;;3.08;;
79229;SDS011;68663;49.122;17.544;2023-06-01T10:31:43;4.88;;;3.10;;
79229;SDS011;68663;49.122;17.544;2023-06-01T10:34:09;4.70;;;3.38;;
79229;SDS011;68663;49.122;17.544;2023-06-01T10:41:51;6.88;;;3.58;;
79229;SDS011;68663;49.122;17.544;2023-06-01T10:50:06;5.65;;;3.33;;
79229;SDS011;68663;49.122;17.544;2023-06-01T10:52:27;4.10;;;3.22;;
79229;SDS011;68663;49.122;17.544;2023-06-01T10:54:54;6.65;;;3.60;;
79229;SDS011;68663;49.122;17.544;2023-06-01T10:57:24;4.82;;;3.50;;
79229;SDS011;68663;49.122;17.544;2023-06-01T11:08:07;6.88;;;3.20;;
79229;SDS011;68663;49.122;17.544;2023-06-01T11:10:58;7.25;;;3.10;;
79229;SDS011;68663;49.122;17.544;2023-06-01T11:13:26;6.35;;;3.40;;
79229;SDS011;68663;49.122;17.544;2023-06-01T11:21:23;5.13;;;3.40;;
79229;SDS011;68663;49.122;17.544;2023-06-01T11:23:49;4.00;;;2.78;;
79229;SDS011;68663;49.122;17.544;2023-06-01T11:26:17;4.55;;;2.97;;
79229;SDS011;68663;49.122;17.544;2023-06-01T11:28:48;4.22;;;2.97;;
79229;SDS011;68663;49.122;17.544;2023-06-01T11:31:17;5.07;;;3.15;;
79229;SDS011;68663;49.122;17.544;2023-06-01T11:33:51;4.70;;;3.25;;
79229;SDS011;68663;49.122;17.544;2023-06-01T11:36:18;4.75;;;3.00;;
79229;SDS011;68663;49.122;17.544;2023-06-01T11:38:45;4.70;;;3.08;;
79229;SDS011;68663;49.122;17.544;2023-06-01T11:41:11;6.25;;;3.17;;
79229;SDS011;68663;49.122;17.544;2023-06-01T11:43:36;4.82;;;3.08;;
79229;SDS011;68663;49.122;17.544;2023-06-01T11:46:06;4.32;;;2.72;;
79229;SDS011;68663;49.122;17.544;2023-06-01T11:48:33;5.15;;;3.13;;
79229;SDS011;68663;49.122;17.544;2023-06-01T11:50:59;5.78;;;3.00;;
79229;SDS011;68663;49.122;17.544;2023-06-01T11:53:26;5.30;;;3.03;;
79229;SDS011;68663;49.122;17.544;2023-06-01T11:55:54;4.40;;;3.20;;
79229;SDS011;68663;49.122;17.544;2023-06-01T11:58:27;4.15;;;2.90;;
79229;SDS011;68663;49.122;17.544;2023-06-01T12:00:54;5.07;;;3.15;;
79229;SDS011;68663;49.122;17.544;2023-06-01T12:03:21;7.90;;;3.15;;
79229;SDS011;68663;49.122;17.544;2023-06-01T12:05:49;6.13;;;3.17;;
79229;SDS011;68663;49.122;17.544;2023-06-01T12:08:16;5.38;;;2.92;;
79229;SDS011;68663;49.122;17.544;2023-06-01T12:13:16;4.72;;;3.35;;
79229;SDS011;68663;49.122;17.544;2023-06-01T12:15:42;6.57;;;3.72;;
79229;SDS011;68663;49.122;17.544;2023-06-01T12:18:08;7.35;;;3.22;;
79229;SDS011;68663;49.122;17.544;2023-06-01T12:20:34;6.65;;;3.70;;
79229;SDS011;68663;49.122;17.544;2023-06-01T12:23:22;6.88;;;3.20;;
79229;SDS011;68663;49.122;17.544;2023-06-01T12:25:56;7.47;;;3.20;;
79229;SDS011;68663;49.122;17.544;2023-06-01T12:28:25;4.93;;;3.40;;
79229;SDS011;68663;49.122;17.544;2023-06-01T12:31:12;7.00;;;4.00;;
79229;SDS011;68663;49.122;17.544;2023-06-01T12:33:40;6.90;;;3.90;;
79229;SDS011;68663;49.122;17.544;2023-06-01T12:36:07;5.25;;;3.33;;
79229;SDS011;68663;49.122;17.544;2023-06-01T12:38:36;5.97;;;3.35;;
79229;SDS011;68663;49.122;17.544;2023-06-01T12:41:06;4.25;;;3.30;;
79229;SDS011;68663;49.122;17.544;2023-06-01T12:43:33;5.65;;;3.45;;
79229;SDS011;68663;49.122;17.544;2023-06-01T12:46:00;9.15;;;4.00;;
79229;SDS011;68663;49.122;17.544;2023-06-01T12:48:33;5.38;;;3.97;;
79229;SDS011;68663;49.122;17.544;2023-06-01T12:51:03;8.23;;;3.70;;
79229;SDS011;68663;49.122;17.544;2023-06-01T12:53:29;6.55;;;3.60;;
79229;SDS011;68663;49.122;17.544;2023-06-01T12:55:55;8.27;;;3.88;;
79229;SDS011;68663;49.122;17.544;2023-06-01T12:58:21;7.57;;;3.88;;
79229;SDS011;68663;49.122;17.544;2023-06-01T13:00:46;9.75;;;4.60;;
79229;SDS011;68663;49.122;17.544;2023-06-01T13:03:13;8.60;;;4.10;;
79229;SDS011;68663;49.122;17.544;2023-06-01T13:05:42;8.00;;;4.00;;
79229;SDS011;68663;49.122;17.544;2023-06-01T13:08:11;9.52;;;4.00;;
79229;SDS011;68663;49.122;17.544;2023-06-01T13:10:40;9.98;;;4.80;;
79229;SDS011;68663;49.122;17.544;2023-06-01T13:13:07;10.10;;;4.60;;
79229;SDS011;68663;49.122;17.544;2023-06-01T13:15:32;10.15;;;4.07;;
79229;SDS011;68663;49.122;17.544;2023-06-01T13:17:58;9.70;;;4.22;;
79229;SDS011;68663;49.122;17.544;2023-06-01T13:20:24;9.48;;;3.85;;
79229;SDS011;68663;49.122;17.544;2023-06-01T13:22:49;8.85;;;4.32;;
79229;SDS011;68663;49.122;17.544;2023-06-01T13:25:15;7.93;;;3.97;;
79229;SDS011;68663;49.122;17.544;2023-06-01T13:27:40;12.77;;;4.43;;
79229;SDS011;68663;49.122;17.544;2023-06-01T13:30:07;15.35;;;5.78;;
79229;SDS011;68663;49.122;17.544;2023-06-01T13:32:33;23.85;;;5.70;;
79229;SDS011;68663;49.122;17.544;2023-06-01T13:34:58;14.50;;;5.57;;
79229;SDS011;68663;49.122;17.544;2023-06-01T13:37:24;20.42;;;6.10;;
79229;SDS011;68663;49.122;17.544;2023-06-01T13:39:49;26.83;;;7.03;;
79229;SDS011;68663;49.122;17.544;2023-06-01T13:42:15;20.00;;;6.55;;
79229;SDS011;68663;49.122;17.544;2023-06-01T13:44:41;13.68;;;5.65;;
79229;SDS011;68663;49.122;17.544;2023-06-01T13:47:10;24.45;;;6.60;;
79229;SDS011;68663;49.122;17.544;2023-06-01T13:49:36;17.48;;;6.22;;
79229;SDS011;68663;49.122;17.544;2023-06-01T13:52:02;16.38;;;5.47;;
79229;SDS011;68663;49.122;17.544;2023-06-01T13:54:28;19.00;;;6.10;;
79229;SDS011;68663;49.122;17.544;2023-06-01T13:56:53;17.25;;;5.32;;
79229;SDS011;68663;49.122;17.544;2023-06-01T13:59:19;16.90;;;4.97;;
79229;SDS011;68663;49.122;17.544;2023-06-01T14:01:45;16.05;;;5.50;;
79229;SDS011;68663;49.122;17.544;2023-06-01T14:04:10;14.57;;;5.75;;
79229;SDS011;68663;49.122;17.544;2023-06-01T14:06:35;14.47;;;5.07;;
79229;SDS011;68663;49.122;17.544;2023-06-01T14:09:01;9.77;;;4.35;;
79229;SDS011;68663;49.122;17.544;2023-06-01T14:11:27;13.18;;;4.53;;
79229;SDS011;68663;49.122;17.544;2023-06-01T14:13:52;8.93;;;4.22;;
79229;SDS011;68663;49.122;17.544;2023-06-01T14:16:18;9.93;;;4.30;;
79229;SDS011;68663;49.122;17.544;2023-06-01T14:18:43;7.40;;;4.03;;
79229;SDS011;68663;49.122;17.544;2023-06-01T14:21:08;10.55;;;3.85;;
79229;SDS011;68663;49.122;17.544;2023-06-01T14:23:34;8.30;;;3.90;;
79229;SDS011;68663;49.122;17.544;2023-06-01T14:26:00;6.05;;;3.90;;
79229;SDS011;68663;49.122;17.544;2023-06-01T14:28:25;10.52;;;4.43;;
79229;SDS011;68663;49.122;17.544;2023-06-01T14:30:51;9.25;;;4.28;;
79229;SDS011;68663;49.122;17.544;2023-06-01T14:33:16;9.05;;;4.22;;
79229;SDS011;68663;49.122;17.544;2023-06-01T14:35:42;7.93;;;4.18;;
79229;SDS011;68663;49.122;17.544;2023-06-01T14:38:07;8.32;;;4.43;;
79229;SDS011;68663;49.122;17.544;2023-06-01T14:40:33;10.32;;;4.50;;
79229;SDS011;68663;49.122;17.544;2023-06-01T14:42:58;10.25;;;4.45;;
79229;SDS011;68663;49.122;17.544;2023-06-01T14:45:24;11.63;;;4.53;;
79229;SDS011;68663;49.122;17.544;2023-06-01T14:47:49;8.82;;;4.00;;
79229;SDS011;68663;49.122;17.544;2023-06-01T14:50:15;10.27;;;4.22;;
79229;SDS011;68663;49.122;17.544;2023-06-01T14:52:40;12.52;;;4.60;;
79229;SDS011;68663;49.122;17.544;2023-06-01T14:55:06;8.00;;;3.77;;
79229;SDS011;68663;49.122;17.544;2023-06-01T14:57:32;7.25;;;3.58;;
79229;SDS011;68663;49.122;17.544;2023-06-01T14:59:58;7.03;;;4.57;;
79229;SDS011;68663;49.122;17.544;2023-06-01T15:02:23;6.45;;;3.78;;
79229;SDS011;68663;49.122;17.544;2023-06-01T15:04:48;5.60;;;3.80;;
79229;SDS011;68663;49.122;17.544;2023-06-01T15:07:14;9.15;;;3.58;;
79229;SDS011;68663;49.122;17.544;2023-06-01T15:09:39;8.38;;;3.70;;
79229;SDS011;68663;49.122;17.544;2023-06-01T15:12:05;11.23;;;3.63;;
79229;SDS011;68663;49.122;17.544;2023-06-01T15:14:30;6.53;;;3.55;;
79229;SDS011;68663;49.122;17.544;2023-06-01T15:16:56;7.30;;;3.83;;
79229;SDS011;68663;49.122;17.544;2023-06-01T15:19:21;12.15;;;4.32;;
79229;SDS011;68663;49.122;17.544;2023-06-01T15:21:47;8.02;;;3.70;;